sensor_id;sensor_type;location;lat;lon;timestamp;temperature;humidity
9847;DHT22;68671;50.084;8.794;2023-05-10T00:00:47;19.00;99.90
9847;DHT22;68671;50.084;8.794;2023-05-10T00:03:14;19.00;99.90
9847;DHT22;68671;50.084;8.794;2023-05-10T00:05:41;19.00;99.90
9847;DHT22;68671;50.084;8.794;2023-05-10T00:08:08;19.00;99.90
9847;DHT22;68671;50.084;8.794;2023-05-10T00:10:36;18.90;99.90
9847;DHT22;68671;50.084;8.794;2023-05-10T00:13:04;18.90;99.90
9847;DHT22;68671;50.084;8.794;2023-05-10T00:15:31;18.90;99.90
9847;DHT22;68671;50.084;8.794;2023-05-10T00:17:58;18.80;99.90
9847;DHT22;68671;50.084;8.794;2023-05-10T00:20:25;18.80;99.90
9847;DHT22;68671;50.084;8.794;2023-05-10T00:22:51;18.80;99.90
9847;DHT22;68671;50.084;8.794;2023-05-10T00:25:18;18.80;99.90
9847;DHT22;68671;50.084;8.794;2023-05-10T00:27:48;18.80;99.90
9847;DHT22;68671;50.084;8.794;2023-05-10T00:30:15;18.80;99.90
9847;DHT22;68671;50.084;8.794;2023-05-10T00:32:42;18.80;99.90
9847;DHT22;68671;50.084;8.794;2023-05-10T00:35:09;18.70;99.90
9847;DHT22;68671;50.084;8.794;2023-05-10T00:37:36;18.80;99.90
9847;DHT22;68671;50.084;8.794;2023-05-10T00:40:03;18.80;99.90
9847;DHT22;68671;50.084;8.794;2023-05-10T00:42:30;18.70;99.90
9847;DHT22;68671;50.084;8.794;2023-05-10T00:44:59;18.80;99.90
9847;DHT22;68671;50.084;8.794;2023-05-10T00:47:26;18.80;99.90
9847;DHT22;68671;50.084;8.794;2023-05-10T00:49:53;18.80;99.90
9847;DHT22;68671;50.084;8.794;2023-05-10T00:52:21;18.80;99.90
9847;DHT22;68671;50.084;8.794;2023-05-10T00:54:49;18.70;99.90
9847;DHT22;68671;50.084;8.794;2023-05-10T00:57:17;18.70;99.90
9847;DHT22;68671;50.084;8.794;2023-05-10T00:59:44;18.70;99.90
9847;DHT22;68671;50.084;8.794;2023-05-10T01:02:12;18.70;99.90
9847;DHT22;68671;50.084;8.794;2023-05-10T01:04:39;18.70;99.90
9847;DHT22;68671;50.084;8.794;2023-05-10T01:07:07;18.60;99.90
9847;DHT22;68671;50.084;8.794;2023-05-10T01:09:34;18.60;99.90
9847;DHT22;68671;50.084;8.794;2023-05-10T01:12:01;18.60;99.90
9847;DHT22;68671;50.084;8.794;2023-05-10T01:14:30;18.60;99.90
9847;DHT22;68671;50.084;8.794;2023-05-10T01:16:57;18.60;99.90
9847;DHT22;68671;50.084;8.794;2023-05-10T01:19:27;18.50;99.90
9847;DHT22;68671;50.084;8.794;2023-05-10T01:22:02;18.50;99.90
9847;DHT22;68671;50.084;8.794;2023-05-10T01:24:57;18.50;99.90
9847;DHT22;68671;50.084;8.794;2023-05-10T01:27:47;18.40;99.90
9847;DHT22;68671;50.084;8.794;2023-05-10T01:30:35;18.40;99.90
9847;DHT22;68671;50.084;8.794;2023-05-10T01:33:11;18.40;99.90
9847;DHT22;68671;50.084;8.794;2023-05-10T01:35:43;18.40;99.90
9847;DHT22;68671;50.084;8.794;2023-05-10T01:38:17;18.40;99.90
9847;DHT22;68671;50.084;8.794;2023-05-10T01:40:54;18.40;99.90
9847;DHT22;68671;50.084;8.794;2023-05-10T01:43:30;18.40;99.90
9847;DHT22;68671;50.084;8.794;2023-05-10T01:46:02;18.30;99.90
9847;DHT22;68671;50.084;8.794;2023-05-10T01:48:39;18.30;99.90
9847;DHT22;68671;50.084;8.794;2023-05-10T01:51:09;18.30;99.90
9847;DHT22;68671;50.084;8.794;2023-05-10T01:53:38;18.40;99.90
9847;DHT22;68671;50.084;8.794;2023-05-10T01:56:07;18.40;99.90
9847;DHT22;68671;50.084;8.794;2023-05-10T01:58:36;18.30;99.90
9847;DHT22;68671;50.084;8.794;2023-05-10T02:01:07;18.30;99.90
9847;DHT22;68671;50.084;8.794;2023-05-10T02:03:37;18.30;99.90
9847;DHT22;68671;50.084;8.794;2023-05-10T02:06:06;18.20;99.90
9847;DHT22;68671;50.084;8.794;2023-05-10T02:08:35;18.30;99.90
9847;DHT22;68671;50.084;8.794;2023-05-10T02:11:03;18.20;99.90
9847;DHT22;68671;50.084;8.794;2023-05-10T02:13:32;18.20;99.90
9847;DHT22;68671;50.084;8.794;2023-05-10T02:16:01;18.20;99.90
9847;DHT22;68671;50.084;8.794;2023-05-10T02:18:29;18.20;99.90
9847;DHT22;68671;50.084;8.794;2023-05-10T02:20:59;18.30;99.90
9847;DHT22;68671;50.084;8.794;2023-05-10T02:23:28;18.20;99.90
9847;DHT22;68671;50.084;8.794;2023-05-10T02:25:57;18.30;99.90
9847;DHT22;68671;50.084;8.794;2023-05-10T02:28:25;18.20;99.90
9847;DHT22;68671;50.084;8.794;2023-05-10T02:30:53;18.20;99.90
9847;DHT22;68671;50.084;8.794;2023-05-10T02:33:21;18.20;99.90
9847;DHT22;68671;50.084;8.794;2023-05-10T02:35:49;18.10;99.90
9847;DHT22;68671;50.084;8.794;2023-05-10T02:38:19;18.20;99.90
9847;DHT22;68671;50.084;8.794;2023-05-10T02:40:47;18.20;99.90
9847;DHT22;68671;50.084;8.794;2023-05-10T02:43:16;18.20;99.90
9847;DHT22;68671;50.084;8.794;2023-05-10T02:45:46;18.10;99.90
9847;DHT22;68671;50.084;8.794;2023-05-10T02:48:14;18.10;99.90
9847;DHT22;68671;50.084;8.794;2023-05-10T02:50:44;18.10;99.90
9847;DHT22;68671;50.084;8.794;2023-05-10T02:53:15;18.10;99.90
9847;DHT22;68671;50.084;8.794;2023-05-10T02:55:50;18.10;99.90
9847;DHT22;68671;50.084;8.794;2023-05-10T02:58:18;18.20;99.90
9847;DHT22;68671;50.084;8.794;2023-05-10T03:00:46;18.20;99.90
9847;DHT22;68671;50.084;8.794;2023-05-10T03:03:13;18.20;99.90
9847;DHT22;68671;50.084;8.794;2023-05-10T03:05:40;18.20;99.90
9847;DHT22;68671;50.084;8.794;2023-05-10T03:08:07;18.20;99.90
9847;DHT22;68671;50.084;8.794;2023-05-10T03:10:41;18.30;99.90
9847;DHT22;68671;50.084;8.794;2023-05-10T03:13:20;18.20;99.90
9847;DHT22;68671;50.084;8.794;2023-05-10T03:15:57;18.20;99.90
9847;DHT22;68671;50.084;8.794;2023-05-10T03:18:31;18.20;99.90
9847;DHT22;68671;50.084;8.794;2023-05-10T03:21:03;18.20;99.90
9847;DHT22;68671;50.084;8.794;2023-05-10T03:23:35;18.30;99.90
9847;DHT22;68671;50.084;8.794;2023-05-10T03:26:02;18.30;99.90
9847;DHT22;68671;50.084;8.794;2023-05-10T03:28:34;18.30;99.90
9847;DHT22;68671;50.084;8.794;2023-05-10T03:31:02;18.30;99.90
9847;DHT22;68671;50.084;8.794;2023-05-10T03:33:31;18.30;99.90
9847;DHT22;68671;50.084;8.794;2023-05-10T03:35:57;18.30;99.90
9847;DHT22;68671;50.084;8.794;2023-05-10T03:38:24;18.30;99.90
9847;DHT22;68671;50.084;8.794;2023-05-10T03:40:51;18.30;99.90
9847;DHT22;68671;50.084;8.794;2023-05-10T03:43:18;18.30;99.90
9847;DHT22;68671;50.084;8.794;2023-05-10T03:45:47;18.30;99.90
9847;DHT22;68671;50.084;8.794;2023-05-10T03:48:14;18.30;99.90
9847;DHT22;68671;50.084;8.794;2023-05-10T03:50:40;18.30;99.90
9847;DHT22;68671;50.084;8.794;2023-05-10T03:53:08;18.30;99.90
9847;DHT22;68671;50.084;8.794;2023-05-10T03:55:35;18.20;99.90
9847;DHT22;68671;50.084;8.794;2023-05-10T03:58:02;18.20;99.90
9847;DHT22;68671;50.084;8.794;2023-05-10T04:00:28;18.20;99.90
9847;DHT22;68671;50.084;8.794;2023-05-10T04:02:57;18.20;99.90
9847;DHT22;68671;50.084;8.794;2023-05-10T04:05:24;18.20;99.90
9847;DHT22;68671;50.084;8.794;2023-05-10T04:07:51;18.20;99.90
9847;DHT22;68671;50.084;8.794;2023-05-10T04:10:18;18.20;99.90
9847;DHT22;68671;50.084;8.794;2023-05-10T04:12:46;18.20;99.90
9847;DHT22;68671;50.084;8.794;2023-05-10T04:15:13;18.20;99.90
9847;DHT22;68671;50.084;8.794;2023-05-10T04:17:40;18.30;99.90
9847;DHT22;68671;50.084;8.794;2023-05-10T04:20:10;18.20;99.90
9847;DHT22;68671;50.084;8.794;2023-05-10T04:22:37;18.20;99.90
9847;DHT22;68671;50.084;8.794;2023-05-10T04:25:05;18.20;99.90
9847;DHT22;68671;50.084;8.794;2023-05-10T04:27:32;18.20;99.90
9847;DHT22;68671;50.084;8.794;2023-05-10T04:29:59;18.20;99.90
9847;DHT22;68671;50.084;8.794;2023-05-10T04:32:26;18.20;99.90
9847;DHT22;68671;50.084;8.794;2023-05-10T04:34:53;18.20;99.90
9847;DHT22;68671;50.084;8.794;2023-05-10T04:37:24;18.20;99.90
9847;DHT22;68671;50.084;8.794;2023-05-10T04:39:51;18.20;99.90
9847;DHT22;68671;50.084;8.794;2023-05-10T04:42:18;18.20;99.90
9847;DHT22;68671;50.084;8.794;2023-05-10T04:44:45;18.20;99.90
9847;DHT22;68671;50.084;8.794;2023-05-10T04:47:12;18.20;99.90
9847;DHT22;68671;50.084;8.794;2023-05-10T04:49:39;18.20;99.90
9847;DHT22;68671;50.084;8.794;2023-05-10T04:52:05;18.20;99.90
9847;DHT22;68671;50.084;8.794;2023-05-10T04:54:34;18.20;99.90
9847;DHT22;68671;50.084;8.794;2023-05-10T04:57:01;18.20;99.90
9847;DHT22;68671;50.084;8.794;2023-05-10T04:59:28;18.20;99.90
9847;DHT22;68671;50.084;8.794;2023-05-10T05:01:55;18.20;99.90
9847;DHT22;68671;50.084;8.794;2023-05-10T05:04:22;18.20;99.90
9847;DHT22;68671;50.084;8.794;2023-05-10T05:06:49;18.20;99.90
9847;DHT22;68671;50.084;8.794;2023-05-10T05:09:16;18.20;99.90
9847;DHT22;68671;50.084;8.794;2023-05-10T05:11:44;18.20;99.90
9847;DHT22;68671;50.084;8.794;2023-05-10T05:14:12;18.20;99.90
9847;DHT22;68671;50.084;8.794;2023-05-10T05:16:39;18.20;99.90
9847;DHT22;68671;50.084;8.794;2023-05-10T05:19:10;18.20;99.90
9847;DHT22;68671;50.084;8.794;2023-05-10T05:21:40;18.30;99.90
9847;DHT22;68671;50.084;8.794;2023-05-10T05:24:07;18.20;99.90
9847;DHT22;68671;50.084;8.794;2023-05-10T05:26:35;18.20;99.90
9847;DHT22;68671;50.084;8.794;2023-05-10T05:29:04;18.20;99.90
9847;DHT22;68671;50.084;8.794;2023-05-10T05:31:32;18.20;99.90
9847;DHT22;68671;50.084;8.794;2023-05-10T05:33:59;18.30;99.90
9847;DHT22;68671;50.084;8.794;2023-05-10T05:36:25;18.40;99.90
9847;DHT22;68671;50.084;8.794;2023-05-10T05:38:52;18.30;99.90
9847;DHT22;68671;50.084;8.794;2023-05-10T05:41:19;18.40;99.90
9847;DHT22;68671;50.084;8.794;2023-05-10T05:43:47;18.40;99.90
9847;DHT22;68671;50.084;8.794;2023-05-10T05:46:15;18.40;99.90
9847;DHT22;68671;50.084;8.794;2023-05-10T05:48:42;18.40;99.90
9847;DHT22;68671;50.084;8.794;2023-05-10T05:51:09;18.40;99.90
9847;DHT22;68671;50.084;8.794;2023-05-10T05:53:36;18.40;99.90
9847;DHT22;68671;50.084;8.794;2023-05-10T05:56:04;18.50;99.90
9847;DHT22;68671;50.084;8.794;2023-05-10T05:58:31;18.50;99.90
9847;DHT22;68671;50.084;8.794;2023-05-10T06:00:58;18.60;99.90
9847;DHT22;68671;50.084;8.794;2023-05-10T06:03:28;18.50;99.90
9847;DHT22;68671;50.084;8.794;2023-05-10T06:05:55;18.60;99.90
9847;DHT22;68671;50.084;8.794;2023-05-10T06:08:22;18.60;99.90
9847;DHT22;68671;50.084;8.794;2023-05-10T06:10:49;18.60;99.90
9847;DHT22;68671;50.084;8.794;2023-05-10T06:13:16;18.70;99.90
9847;DHT22;68671;50.084;8.794;2023-05-10T06:15:43;18.70;99.90
9847;DHT22;68671;50.084;8.794;2023-05-10T06:18:10;18.70;99.90
9847;DHT22;68671;50.084;8.794;2023-05-10T06:20:40;18.90;99.90
9847;DHT22;68671;50.084;8.794;2023-05-10T06:23:07;18.90;99.90
9847;DHT22;68671;50.084;8.794;2023-05-10T06:25:34;19.00;99.90
9847;DHT22;68671;50.084;8.794;2023-05-10T06:28:06;19.20;99.90
9847;DHT22;68671;50.084;8.794;2023-05-10T06:30:33;19.30;99.90
9847;DHT22;68671;50.084;8.794;2023-05-10T06:33:00;19.40;99.90
9847;DHT22;68671;50.084;8.794;2023-05-10T06:35:27;19.40;99.90
9847;DHT22;68671;50.084;8.794;2023-05-10T06:37:55;19.50;99.90
9847;DHT22;68671;50.084;8.794;2023-05-10T06:40:22;19.50;99.90
9847;DHT22;68671;50.084;8.794;2023-05-10T06:42:50;19.60;99.90
9847;DHT22;68671;50.084;8.794;2023-05-10T06:45:17;19.70;99.90
9847;DHT22;68671;50.084;8.794;2023-05-10T06:47:44;19.70;99.90
9847;DHT22;68671;50.084;8.794;2023-05-10T06:50:11;19.70;99.90
9847;DHT22;68671;50.084;8.794;2023-05-10T06:52:38;19.80;99.90
9847;DHT22;68671;50.084;8.794;2023-05-10T06:55:07;19.80;99.90
9847;DHT22;68671;50.084;8.794;2023-05-10T06:57:34;19.70;99.90
9847;DHT22;68671;50.084;8.794;2023-05-10T07:00:02;19.70;99.90
9847;DHT22;68671;50.084;8.794;2023-05-10T07:02:30;19.80;99.90
9847;DHT22;68671;50.084;8.794;2023-05-10T07:04:57;19.80;99.90
9847;DHT22;68671;50.084;8.794;2023-05-10T07:07:24;19.80;99.90
9847;DHT22;68671;50.084;8.794;2023-05-10T07:09:51;19.90;99.90
9847;DHT22;68671;50.084;8.794;2023-05-10T07:12:19;20.00;99.90
9847;DHT22;68671;50.084;8.794;2023-05-10T07:14:46;20.00;99.90
9847;DHT22;68671;50.084;8.794;2023-05-10T07:17:13;20.10;99.90
9847;DHT22;68671;50.084;8.794;2023-05-10T07:19:40;20.30;99.90
9847;DHT22;68671;50.084;8.794;2023-05-10T07:22:07;20.50;99.90
9847;DHT22;68671;50.084;8.794;2023-05-10T07:24:34;20.70;99.90
9847;DHT22;68671;50.084;8.794;2023-05-10T07:27:01;20.90;99.90
9847;DHT22;68671;50.084;8.794;2023-05-10T07:29:30;21.10;99.90
9847;DHT22;68671;50.084;8.794;2023-05-10T07:31:57;21.20;99.90
9847;DHT22;68671;50.084;8.794;2023-05-10T07:34:24;21.30;99.90
9847;DHT22;68671;50.084;8.794;2023-05-10T07:36:51;21.40;99.90
9847;DHT22;68671;50.084;8.794;2023-05-10T07:39:18;21.40;99.90
9847;DHT22;68671;50.084;8.794;2023-05-10T07:41:46;21.40;99.90
9847;DHT22;68671;50.084;8.794;2023-05-10T07:44:12;21.40;99.90
9847;DHT22;68671;50.084;8.794;2023-05-10T07:46:41;21.40;99.90
9847;DHT22;68671;50.084;8.794;2023-05-10T07:49:08;21.40;99.90
9847;DHT22;68671;50.084;8.794;2023-05-10T07:51:35;21.40;99.90
9847;DHT22;68671;50.084;8.794;2023-05-10T07:54:02;21.40;99.90
9847;DHT22;68671;50.084;8.794;2023-05-10T07:56:30;21.40;99.90
9847;DHT22;68671;50.084;8.794;2023-05-10T07:58:57;21.30;99.90
9847;DHT22;68671;50.084;8.794;2023-05-10T08:01:25;21.20;99.90
9847;DHT22;68671;50.084;8.794;2023-05-10T08:03:54;21.10;99.90
9847;DHT22;68671;50.084;8.794;2023-05-10T08:06:22;21.00;99.90
9847;DHT22;68671;50.084;8.794;2023-05-10T08:08:49;20.90;99.90
9847;DHT22;68671;50.084;8.794;2023-05-10T08:11:17;20.90;99.90
9847;DHT22;68671;50.084;8.794;2023-05-10T08:13:44;20.70;99.90
9847;DHT22;68671;50.084;8.794;2023-05-10T08:16:11;20.70;99.90
9847;DHT22;68671;50.084;8.794;2023-05-10T08:18:38;20.70;99.90
9847;DHT22;68671;50.084;8.794;2023-05-10T08:21:07;20.60;99.90
9847;DHT22;68671;50.084;8.794;2023-05-10T08:23:36;20.70;99.90
9847;DHT22;68671;50.084;8.794;2023-05-10T08:26:03;20.60;99.90
9847;DHT22;68671;50.084;8.794;2023-05-10T08:28:30;20.70;99.90
9847;DHT22;68671;50.084;8.794;2023-05-10T08:30:57;20.60;99.90
9847;DHT22;68671;50.084;8.794;2023-05-10T08:33:24;20.60;99.90
9847;DHT22;68671;50.084;8.794;2023-05-10T08:35:51;20.60;99.90
9847;DHT22;68671;50.084;8.794;2023-05-10T08:38:20;20.60;99.90
9847;DHT22;68671;50.084;8.794;2023-05-10T08:40:49;20.60;99.90
9847;DHT22;68671;50.084;8.794;2023-05-10T08:43:22;20.70;99.90
9847;DHT22;68671;50.084;8.794;2023-05-10T08:45:52;20.80;99.90
9847;DHT22;68671;50.084;8.794;2023-05-10T08:48:22;20.90;99.90
9847;DHT22;68671;50.084;8.794;2023-05-10T08:50:53;21.00;99.90
9847;DHT22;68671;50.084;8.794;2023-05-10T08:53:24;21.10;99.90
9847;DHT22;68671;50.084;8.794;2023-05-10T08:55:52;21.20;99.90
9847;DHT22;68671;50.084;8.794;2023-05-10T08:58:20;21.30;99.90
9847;DHT22;68671;50.084;8.794;2023-05-10T09:00:49;21.30;99.90
9847;DHT22;68671;50.084;8.794;2023-05-10T09:03:17;21.40;99.90
9847;DHT22;68671;50.084;8.794;2023-05-10T09:05:45;21.40;99.90
9847;DHT22;68671;50.084;8.794;2023-05-10T09:08:12;21.50;99.90
9847;DHT22;68671;50.084;8.794;2023-05-10T09:10:43;21.50;99.90
9847;DHT22;68671;50.084;8.794;2023-05-10T09:13:13;21.50;99.90
9847;DHT22;68671;50.084;8.794;2023-05-10T09:15:40;21.50;99.90
9847;DHT22;68671;50.084;8.794;2023-05-10T09:18:07;21.50;99.90
9847;DHT22;68671;50.084;8.794;2023-05-10T09:20:34;21.50;99.90
9847;DHT22;68671;50.084;8.794;2023-05-10T09:23:01;21.50;99.90
9847;DHT22;68671;50.084;8.794;2023-05-10T09:25:28;21.60;99.90
9847;DHT22;68671;50.084;8.794;2023-05-10T09:27:57;21.70;99.90
9847;DHT22;68671;50.084;8.794;2023-05-10T09:30:25;21.70;99.90
9847;DHT22;68671;50.084;8.794;2023-05-10T09:32:53;21.80;99.90
9847;DHT22;68671;50.084;8.794;2023-05-10T09:35:22;21.90;99.90
9847;DHT22;68671;50.084;8.794;2023-05-10T09:37:52;22.00;99.90
9847;DHT22;68671;50.084;8.794;2023-05-10T09:40:20;22.10;99.90
9847;DHT22;68671;50.084;8.794;2023-05-10T09:42:52;22.10;99.90
9847;DHT22;68671;50.084;8.794;2023-05-10T09:45:22;22.10;99.90
9847;DHT22;68671;50.084;8.794;2023-05-10T09:47:49;22.10;99.90
9847;DHT22;68671;50.084;8.794;2023-05-10T09:50:16;22.10;99.90
9847;DHT22;68671;50.084;8.794;2023-05-10T09:52:48;22.10;99.90
9847;DHT22;68671;50.084;8.794;2023-05-10T09:55:17;22.20;99.90
9847;DHT22;68671;50.084;8.794;2023-05-10T09:58:10;22.20;99.90
9847;DHT22;68671;50.084;8.794;2023-05-10T10:04:23;22.00;99.90
9847;DHT22;68671;50.084;8.794;2023-05-10T10:07:13;21.90;99.90
9847;DHT22;68671;50.084;8.794;2023-05-10T10:09:40;21.90;99.90
9847;DHT22;68671;50.084;8.794;2023-05-10T10:12:21;21.90;99.90
9847;DHT22;68671;50.084;8.794;2023-05-10T10:17:54;22.10;99.90
9847;DHT22;68671;50.084;8.794;2023-05-10T10:20:32;22.20;99.90
9847;DHT22;68671;50.084;8.794;2023-05-10T10:22:59;22.30;99.90
9847;DHT22;68671;50.084;8.794;2023-05-10T10:25:26;22.50;99.90
9847;DHT22;68671;50.084;8.794;2023-05-10T10:28:03;22.60;99.90
9847;DHT22;68671;50.084;8.794;2023-05-10T10:30:39;22.60;99.90
9847;DHT22;68671;50.084;8.794;2023-05-10T10:33:28;22.70;99.90
9847;DHT22;68671;50.084;8.794;2023-05-10T10:36:00;22.70;99.90
9847;DHT22;68671;50.084;8.794;2023-05-10T10:38:36;22.70;99.90
9847;DHT22;68671;50.084;8.794;2023-05-10T10:41:10;22.70;99.90
9847;DHT22;68671;50.084;8.794;2023-05-10T10:43:37;22.70;99.90
9847;DHT22;68671;50.084;8.794;2023-05-10T10:46:10;22.70;99.90
9847;DHT22;68671;50.084;8.794;2023-05-10T10:48:38;22.70;99.90
9847;DHT22;68671;50.084;8.794;2023-05-10T10:51:07;22.70;99.90
9847;DHT22;68671;50.084;8.794;2023-05-10T10:53:34;22.60;99.90
9847;DHT22;68671;50.084;8.794;2023-05-10T10:56:07;22.50;99.90
9847;DHT22;68671;50.084;8.794;2023-05-10T10:58:36;22.30;99.90
9847;DHT22;68671;50.084;8.794;2023-05-10T11:01:11;22.30;99.90
9847;DHT22;68671;50.084;8.794;2023-05-10T11:03:38;22.20;99.90
9847;DHT22;68671;50.084;8.794;2023-05-10T11:06:06;22.20;99.90
9847;DHT22;68671;50.084;8.794;2023-05-10T11:08:41;22.20;99.90
9847;DHT22;68671;50.084;8.794;2023-05-10T11:11:08;22.20;99.90
9847;DHT22;68671;50.084;8.794;2023-05-10T11:13:39;22.20;99.90
9847;DHT22;68671;50.084;8.794;2023-05-10T11:16:14;22.30;99.90
9847;DHT22;68671;50.084;8.794;2023-05-10T11:18:59;22.40;99.90
9847;DHT22;68671;50.084;8.794;2023-05-10T11:21:28;22.50;99.90
9847;DHT22;68671;50.084;8.794;2023-05-10T11:23:56;22.60;99.90
9847;DHT22;68671;50.084;8.794;2023-05-10T11:26:24;22.60;99.90
9847;DHT22;68671;50.084;8.794;2023-05-10T11:28:53;22.70;99.90
9847;DHT22;68671;50.084;8.794;2023-05-10T11:31:22;22.80;99.90
9847;DHT22;68671;50.084;8.794;2023-05-10T11:33:53;22.80;99.90
9847;DHT22;68671;50.084;8.794;2023-05-10T11:36:23;22.80;99.90
9847;DHT22;68671;50.084;8.794;2023-05-10T11:38:52;22.80;99.90
9847;DHT22;68671;50.084;8.794;2023-05-10T11:41:20;22.80;99.90
9847;DHT22;68671;50.084;8.794;2023-05-10T11:43:49;22.80;99.90
9847;DHT22;68671;50.084;8.794;2023-05-10T11:46:19;22.70;99.90
9847;DHT22;68671;50.084;8.794;2023-05-10T11:48:48;22.60;99.90
9847;DHT22;68671;50.084;8.794;2023-05-10T11:51:19;22.50;99.90
9847;DHT22;68671;50.084;8.794;2023-05-10T11:53:46;22.40;99.90
9847;DHT22;68671;50.084;8.794;2023-05-10T11:56:14;22.30;99.90
9847;DHT22;68671;50.084;8.794;2023-05-10T11:58:41;22.20;99.90
9847;DHT22;68671;50.084;8.794;2023-05-10T12:01:09;22.30;99.90
9847;DHT22;68671;50.084;8.794;2023-05-10T12:03:37;22.30;99.90
9847;DHT22;68671;50.084;8.794;2023-05-10T12:06:05;22.30;99.90
9847;DHT22;68671;50.084;8.794;2023-05-10T12:08:33;22.30;99.90
9847;DHT22;68671;50.084;8.794;2023-05-10T12:11:08;22.40;99.90
9847;DHT22;68671;50.084;8.794;2023-05-10T12:13:39;22.40;99.90
9847;DHT22;68671;50.084;8.794;2023-05-10T12:16:13;22.40;99.90
9847;DHT22;68671;50.084;8.794;2023-05-10T12:18:41;22.50;99.90
9847;DHT22;68671;50.084;8.794;2023-05-10T12:21:09;22.60;99.90
9847;DHT22;68671;50.084;8.794;2023-05-10T12:23:37;22.70;99.90
9847;DHT22;68671;50.084;8.794;2023-05-10T12:26:04;22.70;99.90
9847;DHT22;68671;50.084;8.794;2023-05-10T12:28:34;22.80;99.90
9847;DHT22;68671;50.084;8.794;2023-05-10T12:31:03;22.90;99.90
9847;DHT22;68671;50.084;8.794;2023-05-10T12:33:35;23.00;99.90
9847;DHT22;68671;50.084;8.794;2023-05-10T12:36:05;23.00;99.90
9847;DHT22;68671;50.084;8.794;2023-05-10T12:38:33;23.10;99.90
9847;DHT22;68671;50.084;8.794;2023-05-10T12:41:00;23.10;99.90
9847;DHT22;68671;50.084;8.794;2023-05-10T12:43:28;23.10;99.90
9847;DHT22;68671;50.084;8.794;2023-05-10T12:45:55;23.10;99.90
9847;DHT22;68671;50.084;8.794;2023-05-10T12:48:23;23.20;99.90
9847;DHT22;68671;50.084;8.794;2023-05-10T12:50:50;23.20;99.90
9847;DHT22;68671;50.084;8.794;2023-05-10T12:53:17;23.20;99.90
9847;DHT22;68671;50.084;8.794;2023-05-10T12:55:45;23.20;99.90
9847;DHT22;68671;50.084;8.794;2023-05-10T12:58:12;23.30;99.90
9847;DHT22;68671;50.084;8.794;2023-05-10T13:00:39;23.40;99.90
9847;DHT22;68671;50.084;8.794;2023-05-10T13:03:06;23.40;99.90
9847;DHT22;68671;50.084;8.794;2023-05-10T13:05:34;23.40;99.90
9847;DHT22;68671;50.084;8.794;2023-05-10T13:08:01;23.60;99.90
9847;DHT22;68671;50.084;8.794;2023-05-10T13:10:29;23.60;99.90
9847;DHT22;68671;50.084;8.794;2023-05-10T13:12:57;23.70;99.90
9847;DHT22;68671;50.084;8.794;2023-05-10T13:15:24;23.80;99.90
9847;DHT22;68671;50.084;8.794;2023-05-10T13:17:51;23.90;99.90
9847;DHT22;68671;50.084;8.794;2023-05-10T13:20:18;23.90;99.80
9847;DHT22;68671;50.084;8.794;2023-05-10T13:22:47;24.00;99.50
9847;DHT22;68671;50.084;8.794;2023-05-10T13:25:14;24.00;99.10
9847;DHT22;68671;50.084;8.794;2023-05-10T13:27:41;24.20;98.90
9847;DHT22;68671;50.084;8.794;2023-05-10T13:30:08;24.20;98.80
9847;DHT22;68671;50.084;8.794;2023-05-10T13:32:36;24.20;98.30
9847;DHT22;68671;50.084;8.794;2023-05-10T13:35:04;24.30;97.90
9847;DHT22;68671;50.084;8.794;2023-05-10T13:37:32;24.30;97.60
9847;DHT22;68671;50.084;8.794;2023-05-10T13:40:03;24.30;97.40
9847;DHT22;68671;50.084;8.794;2023-05-10T13:42:31;24.30;97.20
9847;DHT22;68671;50.084;8.794;2023-05-10T13:44:59;24.30;96.90
9847;DHT22;68671;50.084;8.794;2023-05-10T13:47:26;24.20;97.00
9847;DHT22;68671;50.084;8.794;2023-05-10T13:49:53;24.20;97.10
9847;DHT22;68671;50.084;8.794;2023-05-10T13:52:20;24.30;97.10
9847;DHT22;68671;50.084;8.794;2023-05-10T13:54:47;24.30;97.10
9847;DHT22;68671;50.084;8.794;2023-05-10T13:57:15;24.30;97.00
9847;DHT22;68671;50.084;8.794;2023-05-10T13:59:44;24.30;96.60
9847;DHT22;68671;50.084;8.794;2023-05-10T14:02:11;24.30;96.40
9847;DHT22;68671;50.084;8.794;2023-05-10T14:04:39;24.30;96.50
9847;DHT22;68671;50.084;8.794;2023-05-10T14:07:06;24.40;96.40
9847;DHT22;68671;50.084;8.794;2023-05-10T14:09:33;24.30;96.20
9847;DHT22;68671;50.084;8.794;2023-05-10T14:12:01;24.30;95.90
9847;DHT22;68671;50.084;8.794;2023-05-10T14:14:30;24.30;95.70
9847;DHT22;68671;50.084;8.794;2023-05-10T14:16:57;24.30;95.50
9847;DHT22;68671;50.084;8.794;2023-05-10T14:19:24;24.20;95.30
9847;DHT22;68671;50.084;8.794;2023-05-10T14:21:52;24.00;95.30
9847;DHT22;68671;50.084;8.794;2023-05-10T14:24:19;24.00;95.30
9847;DHT22;68671;50.084;8.794;2023-05-10T14:26:47;23.90;95.10
9847;DHT22;68671;50.084;8.794;2023-05-10T14:29:13;23.90;95.10
9847;DHT22;68671;50.084;8.794;2023-05-10T14:31:42;23.90;94.90
9847;DHT22;68671;50.084;8.794;2023-05-10T14:34:09;23.80;94.70
9847;DHT22;68671;50.084;8.794;2023-05-10T14:36:36;23.80;94.70
9847;DHT22;68671;50.084;8.794;2023-05-10T14:39:03;23.80;95.10
9847;DHT22;68671;50.084;8.794;2023-05-10T14:41:30;23.80;94.90
9847;DHT22;68671;50.084;8.794;2023-05-10T14:43:57;23.80;95.00
9847;DHT22;68671;50.084;8.794;2023-05-10T14:46:24;23.80;95.10
9847;DHT22;68671;50.084;8.794;2023-05-10T14:48:53;23.90;95.10
9847;DHT22;68671;50.084;8.794;2023-05-10T14:51:20;23.90;95.20
9847;DHT22;68671;50.084;8.794;2023-05-10T14:53:50;23.90;95.10
9847;DHT22;68671;50.084;8.794;2023-05-10T14:56:20;24.00;95.20
9847;DHT22;68671;50.084;8.794;2023-05-10T14:58:49;24.00;95.70
9847;DHT22;68671;50.084;8.794;2023-05-10T15:01:16;24.10;95.70
9847;DHT22;68671;50.084;8.794;2023-05-10T15:03:43;24.10;95.70
9847;DHT22;68671;50.084;8.794;2023-05-10T15:06:13;24.20;96.00
9847;DHT22;68671;50.084;8.794;2023-05-10T15:08:42;24.20;96.20
9847;DHT22;68671;50.084;8.794;2023-05-10T15:11:09;24.20;96.20
9847;DHT22;68671;50.084;8.794;2023-05-10T15:13:36;24.20;95.70
9847;DHT22;68671;50.084;8.794;2023-05-10T15:16:03;24.20;95.60
9847;DHT22;68671;50.084;8.794;2023-05-10T15:18:30;24.20;95.30
9847;DHT22;68671;50.084;8.794;2023-05-10T15:20:57;24.20;95.00
9847;DHT22;68671;50.084;8.794;2023-05-10T15:23:26;24.30;95.10
9847;DHT22;68671;50.084;8.794;2023-05-10T15:25:54;24.10;95.20
9847;DHT22;68671;50.084;8.794;2023-05-10T15:28:21;24.10;95.40
9847;DHT22;68671;50.084;8.794;2023-05-10T15:30:48;24.00;95.50
9847;DHT22;68671;50.084;8.794;2023-05-10T15:33:15;24.00;95.70
9847;DHT22;68671;50.084;8.794;2023-05-10T15:35:42;23.90;95.60
9847;DHT22;68671;50.084;8.794;2023-05-10T15:38:09;23.80;95.70
9847;DHT22;68671;50.084;8.794;2023-05-10T15:40:38;23.80;96.10
9847;DHT22;68671;50.084;8.794;2023-05-10T15:43:05;23.80;96.30
9847;DHT22;68671;50.084;8.794;2023-05-10T15:45:32;23.80;96.30
9847;DHT22;68671;50.084;8.794;2023-05-10T15:47:59;23.80;96.20
9847;DHT22;68671;50.084;8.794;2023-05-10T15:50:26;23.80;96.20
9847;DHT22;68671;50.084;8.794;2023-05-10T15:52:53;23.80;96.20
9847;DHT22;68671;50.084;8.794;2023-05-10T15:55:20;23.80;96.20
9847;DHT22;68671;50.084;8.794;2023-05-10T15:57:49;23.90;96.40
9847;DHT22;68671;50.084;8.794;2023-05-10T16:00:16;23.90;96.00